Time;durP1;ratioP1;P1;durP2;ratioP2;P2;SDS_P1;SDS_P2;PMS_P1;PMS_P2;Temp;Humidity;BMP_temperature;BMP_pressure;BME280_temperature;BME280_humidity;BME280_pressure;Samples;Min_cycle;Max_cycle;Signal;HPM_P1;HPM_P2
2022/01/13 00:01:01;;;;;;;62.55;18.25;;;;;;;;;;5062602;28;20118;-48
2022/01/13 00:03:27;;;;;;;49.08;17.13;;;;;;;;;;5062557;28;20071;-53
2022/01/13 00:05:57;;;;;;;60.25;17.30;;;4.50;99.90;;;;;;5062194;28;20415;-51
2022/01/13 00:08:23;;;;;;;50.13;16.75;;;;;;;;;;5062574;28;20048;-47
2022/01/13 00:10:49;;;;;;;51.33;16.60;;;;;;;;;;5061984;28;20041;-50
2022/01/13 00:13:22;;;;;;;59.03;17.25;;;;;;;;;;5061284;28;20047;-52
2022/01/13 00:16:23;;;;;;;56.38;17.25;;;;;;;;;;5062161;28;20493;-54
2022/01/13 00:18:49;;;;;;;48.33;17.33;;;;;;;;;;5059861;28;20044;-50
2022/01/13 00:21:30;;;;;;;57.10;17.13;;;4.50;99.90;;;;;;5061663;28;20056;-51
2022/01/13 00:23:59;;;;;;;57.75;17.40;;;;;;;;;;5059770;28;20040;-53
2022/01/13 00:26:27;;;;;;;50.42;17.42;;;;;;;;;;5062112;28;20043;-49
2022/01/13 00:28:55;;;;;;;63.10;17.35;;;4.40;99.90;;;;;;5062324;28;20045;-50
2022/01/13 00:31:27;;;;;;;55.95;17.38;;;4.40;99.90;;;;;;5065333;28;20041;-52
2022/01/13 00:33:57;;;;;;;;;;;4.50;99.90;;;;;;5065467;28;20505;-49
2022/01/13 00:36:28;;;;;;;55.30;18.08;;;4.10;99.90;;;;;;5064178;28;19920;-53
2022/01/13 00:38:54;;;;;;;48.95;16.77;;;4.40;99.90;;;;;;5062656;28;20037;-53
2022/01/13 00:41:21;;;;;;;47.40;17.90;;;;;;;;;;5065150;28;20036;-50
2022/01/13 00:43:47;;;;;;;45.97;17.05;;;4.40;99.90;;;;;;5065494;28;20068;-51
2022/01/13 00:46:21;;;;;;;72.45;20.25;;;4.50;99.90;;;;;;5064514;28;20036;-51
2022/01/13 00:48:48;;;;;;;53.80;17.35;;;4.40;99.90;;;;;;5064886;28;20044;-49
2022/01/13 00:51:14;;;;;;;50.55;17.92;;;;;;;;;;5064319;28;20161;-48
2022/01/13 00:53:41;;;;;;;56.13;18.35;;;;;;;;;;5065150;28;20037;-50
2022/01/13 00:56:07;;;;;;;52.75;18.52;;;;;;;;;;5064076;28;20052;-52
2022/01/13 00:58:35;;;;;;;58.50;19.05;;;4.40;99.90;;;;;;5064613;28;20093;-50
2022/01/13 01:01:03;;;;;;;69.35;19.50;;;4.50;99.90;;;;;;5065326;28;20037;-53
2022/01/13 01:03:30;;;;;;;52.63;17.73;;;4.50;99.90;;;;;;5065763;28;20055;-50
2022/01/13 01:05:57;;;;;;;57.35;20.25;;;4.50;99.90;;;;;;5066060;28;20049;-49
2022/01/13 01:08:25;;;;;;;68.63;22.23;;;4.50;99.90;;;;;;5065470;28;20607;-49
2022/01/13 01:10:53;;;;;;;60.25;21.08;;;;;;;;;;5064241;28;20497;-50
2022/01/13 01:13:22;;;;;;;80.07;22.23;;;4.50;99.90;;;;;;5065452;28;20037;-52
2022/01/13 01:15:53;;;;;;;89.40;22.75;;;4.50;99.90;;;;;;5066084;28;20045;-54
2022/01/13 01:23:55;;;;;;;58.70;21.60;;;4.60;99.90;;;;;;5064581;28;20131;-54
2022/01/13 01:29:14;;;;;;;70.88;21.65;;;4.60;99.90;;;;;;5064502;28;20489;-53
2022/01/13 01:31:46;;;;;;;70.95;21.10;;;4.50;99.90;;;;;;5064206;28;20043;-51
2022/01/13 01:34:29;;;;;;;;;;;4.50;99.90;;;;;;5064313;28;20435;-52
2022/01/13 01:36:56;;;;;;;74.43;19.67;;;4.60;99.90;;;;;;5063369;28;20003;-50
2022/01/13 01:39:24;;;;;;;73.95;21.23;;;4.60;99.90;;;;;;5063878;28;20025;-53
2022/01/13 01:41:52;;;;;;;66.15;19.83;;;4.50;99.90;;;;;;5063271;28;20245;-53
2022/01/13 01:44:27;;;;;;;62.70;21.27;;;4.70;99.90;;;;;;5063745;28;20439;-52
2022/01/13 01:46:54;;;;;;;69.93;22.55;;;;;;;;;;5062975;28;20040;-52
2022/01/13 01:49:23;;;;;;;71.22;21.40;;;4.60;99.90;;;;;;5063368;28;20077;-52
2022/01/13 01:51:51;;;;;;;85.85;22.13;;;4.50;99.90;;;;;;5063686;28;20043;-50
2022/01/13 01:54:18;;;;;;;86.28;21.67;;;;;;;;;;5062855;28;20099;-49
2022/01/13 01:56:44;;;;;;;79.05;22.83;;;4.40;99.90;;;;;;5062297;28;20056;-52
2022/01/13 01:59:14;;;;;;;60.28;21.55;;;4.50;99.90;;;;;;5064296;28;20044;-50
2022/01/13 02:01:41;;;;;;;66.78;21.55;;;4.60;99.90;;;;;;5063534;28;20456;-52
2022/01/13 02:04:10;;;;;;;67.85;22.48;;;4.60;99.90;;;;;;5064426;28;20047;-52
2022/01/13 02:06:37;;;;;;;82.20;22.25;;;4.40;99.90;;;;;;5063976;28;20115;-49
2022/01/13 02:09:09;;;;;;;65.28;21.35;;;4.70;99.90;;;;;;5063397;28;20059;-51
2022/01/13 02:11:42;;;;;;;80.35;23.67;;;4.50;99.90;;;;;;5063606;28;20037;-52
2022/01/13 02:16:53;;;;;;;72.70;22.35;;;4.60;99.90;;;;;;5063900;28;20045;-53
2022/01/13 02:19:19;;;;;;;72.97;22.30;;;;;;;;;;5063841;28;20076;-47
2022/01/13 02:21:47;;;;;;;65.72;22.70;;;4.60;99.90;;;;;;5062720;28;20144;-50
2022/01/13 02:24:13;;;;;;;66.43;22.02;;;;;;;;;;5064218;28;20033;-52
2022/01/13 02:26:39;;;;;;;74.88;23.15;;;;;;;;;;5063616;28;20520;-51
2022/01/13 02:29:08;;;;;;;72.97;21.92;;;4.60;99.90;;;;;;5062716;28;20041;-48
2022/01/13 02:31:33;;;;;;;69.65;21.20;;;4.70;99.90;;;;;;5063976;28;20044;-50
2022/01/13 02:33:59;;;;;;;58.03;21.10;;;;;;;;;;5063615;28;20037;-48
2022/01/13 02:36:27;;;;;;;66.93;21.10;;;4.40;99.90;;;;;;5062951;28;20040;-52
2022/01/13 02:38:54;;;;;;;59.00;20.02;;;4.70;99.90;;;;;;5062955;28;20048;-50
2022/01/13 02:41:24;;;;;;;57.75;19.65;;;4.60;99.90;;;;;;5060999;28;20131;-51
2022/01/13 02:43:54;;;;;;;80.60;19.33;;;4.60;99.90;;;;;;5062519;28;20244;-52
2022/01/13 02:49:06;;;;;;;58.35;20.35;;;4.80;99.90;;;;;;5062909;28;20040;-48
2022/01/13 02:51:32;;;;;;;65.10;20.33;;;4.60;99.90;;;;;;5062972;28;20497;-51
2022/01/13 02:53:59;;;;;;;69.47;20.83;;;4.60;99.90;;;;;;5060850;28;20887;-51
2022/01/13 02:56:26;;;;;;;73.78;19.90;;;4.50;99.90;;;;;;5062351;28;20059;-52
2022/01/13 02:58:52;;;;;;;61.78;20.42;;;4.70;99.90;;;;;;5062006;28;20041;-52
2022/01/13 03:01:20;;;;;;;75.70;21.60;;;4.60;99.90;;;;;;5062376;28;20044;-50
2022/01/13 03:03:47;;;;;;;64.10;20.55;;;;;;;;;;5062596;28;20493;-51
2022/01/13 03:06:14;;;;;;;86.28;22.95;;;4.60;99.90;;;;;;5060591;28;20127;-49
2022/01/13 03:08:46;;;;;;;83.85;22.48;;;4.60;99.90;;;;;;5061587;28;20123;-56
2022/01/13 03:11:14;;;;;;;76.50;20.63;;;4.50;99.90;;;;;;5062466;28;20178;-50
2022/01/13 03:13:41;;;;;;;80.53;22.85;;;;;;;;;;5062278;28;20062;-53
2022/01/13 03:16:11;;;;;;;87.35;23.67;;;4.60;99.90;;;;;;5062108;28;20048;-50
2022/01/13 03:18:38;;;;;;;89.03;21.83;;;4.60;99.90;;;;;;5061833;28;20505;-53
2022/01/13 03:21:04;;;;;;;100.90;24.83;;;4.50;99.90;;;;;;5062056;28;20079;-51
2022/01/13 03:23:31;;;;;;;82.03;22.48;;;;;;;;;;5062275;28;20056;-52
2022/01/13 03:25:57;;;;;;;79.85;21.05;;;;;;;;;;5060463;28;20397;-54
2022/01/13 03:28:38;;;;;;;97.05;22.02;;;4.70;99.90;;;;;;5061299;28;20036;-53
2022/01/13 03:31:06;;;;;;;104.40;22.42;;;4.60;99.90;;;;;;5060847;28;20044;-50
2022/01/13 03:33:33;;;;;;;107.35;22.08;;;4.80;99.90;;;;;;5061193;28;20033;-49
2022/01/13 03:36:02;;;;;;;102.47;23.45;;;4.40;99.90;;;;;;5062381;28;20513;-50
2022/01/13 03:38:28;;;;;;;94.00;22.27;;;;;;;;;;5061331;28;20515;-51
2022/01/13 03:40:54;;;;;;;115.97;24.38;;;;;;;;;;5061995;28;20040;-51
2022/01/13 03:43:20;;;;;;;119.47;25.45;;;;;;;;;;5062153;28;20393;-50
2022/01/13 03:45:46;;;;;;;130.77;26.10;;;4.50;99.90;;;;;;5062936;28;21647;-52
2022/01/13 03:48:15;;;;;;;149.43;24.75;;;4.60;99.90;;;;;;5061831;28;20088;-54
2022/01/13 03:50:42;;;;;;;89.47;20.92;;;4.50;99.90;;;;;;5061362;28;20037;-49
2022/01/13 03:53:28;;;;;;;113.97;24.98;;;4.60;99.90;;;;;;5062195;28;20052;-53
2022/01/13 03:56:47;;;;;;;124.25;24.33;;;4.60;99.90;;;;;;5060827;28;20134;-51
2022/01/13 04:00:04;;;;;;;100.13;22.63;;;4.70;99.90;;;;;;5060156;28;20052;-53
2022/01/13 04:02:30;;;;;;;126.78;24.42;;;4.70;99.90;;;;;;4979958;28;20035;-51
2022/01/13 04:04:56;;;;;;;135.52;25.98;;;;;;;;;;4981638;28;20493;-52
2022/01/13 04:07:24;;;;;;;113.22;24.92;;;4.70;99.90;;;;;;4982727;28;22333;-53
2022/01/13 04:09:50;;;;;;;156.05;26.05;;;;;;;;;;4983785;28;20159;-54
2022/01/13 04:12:19;;;;;;;141.35;26.13;;;4.70;99.90;;;;;;4982659;28;20051;-51
2022/01/13 04:14:49;;;;;;;130.35;24.92;;;;;;;;;;4983550;28;20051;-53
2022/01/13 04:17:18;;;;;;;138.98;25.60;;;4.70;99.90;;;;;;4982486;28;20169;-50
2022/01/13 04:19:45;;;;;;;105.53;24.00;;;;;;;;;;4982339;28;20590;-54
2022/01/13 04:22:12;;;;;;;137.02;23.83;;;;;;;;;;4982734;28;20101;-51
2022/01/13 04:24:41;;;;;;;134.15;25.27;;;;;;;;;;4983386;28;20086;-51
2022/01/13 04:27:10;;;;;;;134.23;25.08;;;4.80;99.90;;;;;;4965762;28;20081;-50
2022/01/13 04:29:40;;;;;;;103.10;23.13;;;5.50;99.90;;;;;;4983818;28;20129;-51
2022/01/13 04:32:06;;;;;;;101.25;22.27;;;4.80;99.90;;;;;;4981613;28;20368;-51
2022/01/13 04:34:32;;;;;;;124.25;24.73;;;4.90;99.90;;;;;;4981349;28;20049;-52
2022/01/13 04:36:58;;;;;;;124.45;24.48;;;4.90;99.90;;;;;;4994293;28;20309;-50
2022/01/13 04:39:29;;;;;;;171.15;25.42;;;4.80;99.90;;;;;;5065149;28;20120;-51
2022/01/13 04:41:57;;;;;;;178.93;27.17;;;4.60;99.90;;;;;;5063627;28;20044;-52
2022/01/13 04:44:24;;;;;;;119.97;24.98;;;4.70;99.90;;;;;;5065407;28;20040;-48
2022/01/13 04:46:52;;;;;;;170.35;26.70;;;4.70;99.90;;;;;;5064605;28;20036;-48
2022/01/13 04:49:21;;;;;;;191.85;27.20;;;4.80;99.90;;;;;;5064821;28;20041;-51
2022/01/13 04:51:49;;;;;;;109.88;23.58;;;4.90;99.90;;;;;;5063594;28;20036;-52
2022/01/13 04:54:16;;;;;;;152.63;24.85;;;;;;;;;;5062742;28;20051;-48
2022/01/13 04:57:04;;;;;;;131.52;24.27;;;4.80;99.90;;;;;;5063334;28;20060;-50
2022/01/13 04:59:31;;;;;;;151.30;24.55;;;4.80;99.90;;;;;;5063940;28;20099;-52
2022/01/13 05:02:00;;;;;;;170.32;26.33;;;;;;;;;;5064250;28;20047;-52
2022/01/13 05:04:26;;;;;;;120.13;23.65;;;;;;;;;;5064569;28;20033;-51
2022/01/13 05:06:52;;;;;;;178.55;25.92;;;;;;;;;;5064694;28;20039;-51
2022/01/13 05:09:18;;;;;;;164.45;25.95;;;4.70;99.90;;;;;;5064130;28;20040;-52
2022/01/13 05:11:44;;;;;;;132.30;24.20;;;;;;;;;;5065608;28;20086;-51
2022/01/13 05:14:10;;;;;;;250.30;29.50;;;;;;;;;;5065988;28;20406;-51
2022/01/13 05:16:55;;;;;;;171.77;24.80;;;4.80;99.90;;;;;;5066103;28;20037;-50
2022/01/13 05:19:37;;;;;;;108.90;21.35;;;;;;;;;;5065089;28;20505;-53
2022/01/13 05:22:15;;;;;;;151.68;25.27;;;4.80;99.90;;;;;;5063609;28;20497;-49
2022/01/13 05:24:49;;;;;;;176.70;26.05;;;4.80;99.90;;;;;;5064210;28;20059;-51
2022/01/13 05:27:19;;;;;;;243.02;29.27;;;4.90;99.90;;;;;;5065570;28;20029;-53
2022/01/13 05:29:45;;;;;;;163.10;25.88;;;;;;;;;;5065459;28;20520;-50
2022/01/13 05:32:11;;;;;;;180.32;27.13;;;;;;;;;;5065276;28;20583;-50
2022/01/13 05:34:37;;;;;;;171.43;27.40;;;5.00;99.90;;;;;;5065695;28;20040;-50
2022/01/13 05:37:03;;;;;;;159.82;26.92;;;5.00;99.90;;;;;;5064008;28;20405;-53
2022/01/13 05:39:30;;;;;;;169.90;27.23;;;5.00;99.90;;;;;;5063807;28;20488;-54
2022/01/13 05:41:56;;;;;;;209.15;29.20;;;4.80;99.90;;;;;;5065073;28;20063;-50
2022/01/13 05:44:22;;;;;;;198.93;28.48;;;;;;;;;;5063406;28;20493;-48
2022/01/13 05:46:51;;;;;;;185.88;29.58;;;5.10;99.90;;;;;;5063517;28;20346;-51
2022/01/13 05:49:17;;;;;;;147.05;25.45;;;5.10;99.90;;;;;;5063285;28;20110;-50
2022/01/13 05:51:43;;;;;;;253.10;32.33;;;;;;;;;;5063381;28;20046;-53
2022/01/13 05:54:09;;;;;;;182.63;29.80;;;;;;;;;;5062732;28;20057;-52
2022/01/13 05:56:35;;;;;;;143.45;25.90;;;;;;;;;;5062347;28;20068;-49
2022/01/13 05:59:01;;;;;;;149.05;26.35;;;5.00;99.90;;;;;;5062940;28;20094;-49
2022/01/13 06:01:26;;;;;;;166.00;28.88;;;5.10;99.90;;;;;;5063672;28;20033;-47
2022/01/13 06:03:52;;;;;;;116.15;24.83;;;4.90;99.90;;;;;;5062350;28;20044;-49
2022/01/13 06:06:18;;;;;;;186.07;29.35;;;5.00;99.90;;;;;;5063392;28;20036;-49
2022/01/13 06:08:43;;;;;;;155.50;28.65;;;5.10;99.90;;;;;;5063300;28;20504;-50
2022/01/13 06:11:10;;;;;;;165.43;29.08;;;;;;;;;;5060688;28;20044;-53
2022/01/13 06:13:35;;;;;;;156.00;29.27;;;5.30;99.90;;;;;;5061673;28;20433;-52
2022/01/13 06:16:03;;;;;;;174.60;29.70;;;5.20;99.90;;;;;;5062639;28;20041;-53
2022/01/13 06:18:30;;;;;;;187.88;29.17;;;5.10;99.90;;;;;;5061928;28;20685;-54
2022/01/13 06:20:56;;;;;;;150.63;27.00;;;5.20;99.90;;;;;;5063459;28;20032;-52
2022/01/13 06:23:22;;;;;;;150.60;29.63;;;5.30;99.90;;;;;;5061117;28;20040;-52
2022/01/13 06:25:51;;;;;;;155.55;28.20;;;5.30;99.90;;;;;;5062927;28;20074;-52
2022/01/13 06:28:16;;;;;;;148.95;28.58;;;5.20;99.90;;;;;;5061501;28;20044;-52
2022/01/13 06:30:43;;;;;;;152.55;28.77;;;;;;;;;;5061572;28;20045;-53
2022/01/13 06:33:08;;;;;;;149.10;29.02;;;5.20;99.90;;;;;;5062863;28;20114;-52
2022/01/13 06:35:36;;;;;;;164.85;30.80;;;5.20;99.90;;;;;;5059814;28;20179;-49
2022/01/13 06:38:01;;;;;;;149.70;31.27;;;5.20;99.90;;;;;;5062368;28;20059;-50
2022/01/13 06:40:29;;;;;;;158.70;30.25;;;5.30;99.90;;;;;;5062430;28;20370;-50
2022/01/13 06:42:55;;;;;;;149.93;27.83;;;;;;;;;;5061729;28;20036;-51
2022/01/13 06:45:21;;;;;;;132.93;28.48;;;5.30;99.90;;;;;;5064958;28;20127;-50
2022/01/13 06:47:50;;;;;;;137.35;29.48;;;5.40;99.90;;;;;;5063739;28;20119;-51
2022/01/13 06:50:19;;;;;;;163.57;33.50;;;5.30;99.90;;;;;;5063056;28;20509;-50
2022/01/13 06:52:47;;;;;;;168.65;32.13;;;;;;;;;;5062515;28;20051;-51
2022/01/13 06:55:13;;;;;;;165.45;33.55;;;;;;;;;;5064032;28;20055;-47
2022/01/13 06:57:39;;;;;;;153.07;33.17;;;5.40;99.90;;;;;;5062058;28;20202;-51
2022/01/13 07:00:05;;;;;;;153.60;32.65;;;5.40;99.90;;;;;;5062018;28;20135;-50
2022/01/13 07:02:33;;;;;;;206.20;35.92;;;;;;;;;;5061440;28;20029;-51
2022/01/13 07:04:58;;;;;;;203.93;36.30;;;5.50;99.90;;;;;;5061866;28;20141;-51
2022/01/13 07:07:30;;;;;;;219.48;36.75;;;5.30;99.90;;;;;;5062139;28;20041;-48
2022/01/13 07:09:56;;;;;;;190.90;34.60;;;5.40;99.90;;;;;;5060956;28;20503;-50
2022/01/13 07:12:22;;;;;;;199.75;35.90;;;5.50;99.90;;;;;;5061711;28;20118;-47
2022/01/13 07:14:49;;;;;;;197.88;34.88;;;5.50;99.90;;;;;;5061559;28;20067;-48
2022/01/13 07:17:16;;;;;;;167.43;31.77;;;5.40;99.90;;;;;;5062437;28;20111;-50
2022/01/13 07:19:42;;;;;;;225.55;33.67;;;4.20;99.90;;;;;;5063151;28;20039;-52
2022/01/13 07:22:09;;;;;;;189.07;33.35;;;5.40;99.90;;;;;;5062065;28;20032;-48
2022/01/13 07:24:35;;;;;;;170.02;31.13;;;5.50;99.90;;;;;;5062609;28;20079;-48
2022/01/13 07:27:01;;;;;;;169.13;31.55;;;5.40;99.90;;;;;;5059127;28;20078;-51
2022/01/13 07:29:26;;;;;;;189.02;32.45;;;5.50;99.90;;;;;;5061924;28;20651;-51
2022/01/13 07:31:54;;;;;;;126.07;28.38;;;5.40;99.90;;;;;;5062245;28;20056;-49
2022/01/13 07:34:20;;;;;;;217.38;36.28;;;;;;;;;;5061628;28;20045;-48
2022/01/13 07:36:46;;;;;;;199.90;34.53;;;;;;;;;;5062089;28;20507;-51
2022/01/13 07:39:12;;;;;;;179.15;35.47;;;5.40;99.90;;;;;;5062015;28;20123;-52
2022/01/13 07:41:38;;;;;;;161.10;33.28;;;5.40;99.90;;;;;;5061823;28;20131;-48
2022/01/13 07:44:05;;;;;;;205.55;42.40;;;5.50;99.90;;;;;;5061756;28;20041;-50
2022/01/13 07:46:32;;;;;;;172.43;36.67;;;;;;;;;;5062642;28;20041;-50
2022/01/13 07:48:57;;;;;;;191.07;38.13;;;5.30;99.90;;;;;;5060728;28;20036;-51
2022/01/13 07:51:23;;;;;;;145.02;32.83;;;5.30;99.90;;;;;;5061452;28;20949;-51
2022/01/13 07:53:52;;;;;;;158.45;33.20;;;5.50;99.90;;;;;;5061199;28;20041;-52
2022/01/13 07:56:18;;;;;;;153.57;33.78;;;5.50;99.90;;;;;;5060215;28;20135;-51
2022/01/13 07:58:46;;;;;;;145.70;32.63;;;5.40;99.90;;;;;;5061741;28;20135;-48
2022/01/13 08:01:12;;;;;;;157.80;34.70;;;5.50;99.90;;;;;;5062233;28;20119;-47
2022/01/13 08:03:38;;;;;;;200.27;42.38;;;5.30;99.90;;;;;;5061888;28;20090;-53
2022/01/13 08:06:04;;;;;;;131.80;37.05;;;5.40;99.90;;;;;;5061316;28;20048;-50
2022/01/13 08:08:35;;;;;;;154.65;34.47;;;5.30;99.90;;;;;;5059441;28;20105;-51
2022/01/13 08:11:02;;;;;;;149.75;42.55;;;5.50;99.90;;;;;;5062039;28;20036;-50
2022/01/13 08:13:27;;;;;;;158.75;38.08;;;5.40;99.90;;;;;;5061552;28;20397;-51
2022/01/13 08:15:55;;;;;;;173.20;39.72;;;5.50;99.90;;;;;;5062799;28;20123;-51
2022/01/13 08:21:08;;;;;;;153.52;34.10;;;5.40;99.90;;;;;;5060221;28;20079;-49
2022/01/13 08:23:34;;;;;;;163.15;37.45;;;;;;;;;;5061124;28;20084;-50
2022/01/13 08:26:02;;;;;;;141.27;33.85;;;5.20;99.90;;;;;;5061196;28;20487;-50
2022/01/13 08:28:28;;;;;;;144.27;34.22;;;5.40;99.90;;;;;;5061114;28;20036;-51
2022/01/13 08:30:57;;;;;;;156.65;32.63;;;5.40;99.90;;;;;;5062049;28;20044;-49
2022/01/13 08:33:25;;;;;;;112.22;29.27;;;5.50;99.90;;;;;;5061965;28;20044;-50
2022/01/13 08:35:53;;;;;;;160.27;32.25;;;5.40;99.90;;;;;;5061629;28;20075;-51
2022/01/13 08:38:20;;;;;;;115.47;29.90;;;5.30;99.90;;;;;;5061352;28;20040;-53
2022/01/13 08:40:49;;;;;;;144.93;30.08;;;5.30;99.90;;;;;;5061162;28;20040;-52
2022/01/13 08:43:16;;;;;;;149.48;32.80;;;5.40;99.90;;;;;;5061147;28;20045;-51
2022/01/13 08:45:42;;;;;;;125.00;30.02;;;5.40;99.90;;;;;;5061055;28;20507;-49
2022/01/13 08:48:08;;;;;;;163.40;35.13;;;5.40;99.90;;;;;;5059644;28;20048;-49
2022/01/13 08:50:35;;;;;;;130.23;34.63;;;5.50;99.90;;;;;;5060588;28;20036;-50
2022/01/13 08:53:01;;;;;;;156.00;34.42;;;5.30;99.90;;;;;;5062768;28;20546;-49
2022/01/13 08:55:27;;;;;;;150.65;34.45;;;5.50;99.90;;;;;;5064263;28;20572;-49
2022/01/13 08:57:53;;;;;;;184.60;40.78;;;5.40;99.90;;;;;;5063349;28;20528;-50
2022/01/13 09:00:19;;;;;;;160.25;36.92;;;5.50;99.90;;;;;;5064216;28;20130;-50
2022/01/13 09:02:45;;;;;;;159.50;35.42;;;;;;;;;;5064518;28;20121;-51
2022/01/13 09:05:13;;;;;;;146.27;36.22;;;5.40;99.90;;;;;;5063473;28;20669;-50
2022/01/13 09:07:39;;;;;;;141.98;35.45;;;5.50;99.90;;;;;;5063827;28;20412;-48
2022/01/13 09:10:08;;;;;;;137.70;33.92;;;5.40;99.90;;;;;;5064296;28;20051;-48
2022/01/13 09:12:34;;;;;;;146.38;39.30;;;5.60;99.90;;;;;;5064551;28;20782;-47
2022/01/13 09:15:13;;;;;;;154.77;39.13;;;5.60;99.90;;;;;;5062962;28;20037;-48
2022/01/13 09:17:41;;;;;;;151.18;42.47;;;;;;;;;;5065226;28;20432;-50
2022/01/13 09:20:08;;;;;;;153.30;50.53;;;5.50;99.90;;;;;;5065319;28;20052;-50
2022/01/13 09:22:34;;;;;;;164.70;52.80;;;5.60;99.90;;;;;;5062929;28;20127;-51
2022/01/13 09:25:02;;;;;;;147.82;40.45;;;5.60;99.90;;;;;;5063960;28;20173;-52
2022/01/13 09:27:28;;;;;;;134.40;41.08;;;5.70;99.90;;;;;;5064202;28;20119;-53
2022/01/13 09:29:53;;;;;;;127.32;39.40;;;5.60;99.90;;;;;;5063352;28;20170;-50
2022/01/13 09:32:22;;;;;;;134.23;38.90;;;5.60;99.90;;;;;;5064262;28;20143;-51
2022/01/13 09:34:48;;;;;;;132.55;35.65;;;;;;;;;;5062915;28;20541;-52
2022/01/13 09:37:14;;;;;;;117.05;37.60;;;5.70;99.90;;;;;;5063376;28;20171;-47
2022/01/13 09:39:41;;;;;;;123.22;35.08;;;5.80;99.90;;;;;;5062087;28;20138;-50
2022/01/13 09:42:10;;;;;;;131.77;41.95;;;5.70;99.90;;;;;;5063829;28;20056;-52
2022/01/13 09:44:36;;;;;;;112.88;36.10;;;5.80;99.90;;;;;;5063732;28;20036;-51
2022/01/13 09:47:04;;;;;;;131.43;36.80;;;5.80;99.90;;;;;;5063561;28;20040;-50
2022/01/13 09:49:30;;;;;;;113.22;34.65;;;5.80;99.90;;;;;;5062373;28;20662;-47
2022/01/13 09:51:55;;;;;;;131.27;42.33;;;5.80;99.90;;;;;;5062268;28;20044;-51
2022/01/13 09:54:23;;;;;;;122.72;36.22;;;5.80;99.90;;;;;;5063581;28;20359;-52
2022/01/13 09:56:49;;;;;;;132.57;42.00;;;5.80;99.90;;;;;;5063221;28;20499;-52
2022/01/13 09:59:15;;;;;;;134.05;41.38;;;5.90;99.90;;;;;;5063577;28;20056;-52
2022/01/13 10:01:40;;;;;;;132.35;39.75;;;5.90;99.90;;;;;;5061807;28;20131;-49
2022/01/13 10:04:06;;;;;;;125.50;39.55;;;5.90;99.90;;;;;;5062857;28;20044;-51
2022/01/13 10:06:41;;;;;;;130.13;39.63;;;6.00;99.90;;;;;;5062934;28;20044;-52
2022/01/13 10:09:06;;;;;;;137.27;43.95;;;5.90;99.90;;;;;;5061117;28;20633;-52
2022/01/13 10:11:35;;;;;;;128.55;43.20;;;6.00;99.90;;;;;;5062047;28;20029;-50
2022/01/13 10:16:56;;;;;;;124.15;41.10;;;5.90;99.90;;;;;;5062774;28;20040;-49
2022/01/13 10:19:57;;;;;;;159.43;50.90;;;5.90;99.90;;;;;;5059993;28;20072;-48
2022/01/13 10:22:31;;;;;;;129.13;43.38;;;6.10;99.90;;;;;;5011265;28;20061;-52
2022/01/13 10:24:59;;;;;;;161.50;56.47;;;6.20;99.90;;;;;;5013472;28;20190;-49
2022/01/13 10:27:30;;;;;;;148.32;53.00;;;6.00;99.90;;;;;;5005078;28;20042;-48
2022/01/13 10:30:00;;;;;;;147.55;43.92;;;6.00;99.90;;;;;;5004860;28;20275;-48
2022/01/13 10:32:41;;;;;;;131.32;45.22;;;6.10;99.90;;;;;;5010338;28;20096;-53
2022/01/13 10:35:10;;;;;;;132.38;44.83;;;5.90;99.90;;;;;;4993379;28;20410;-51
2022/01/13 10:38:02;;;;;;;130.55;47.47;;;6.00;99.90;;;;;;5005795;28;20048;-51
2022/01/13 10:40:34;;;;;;;139.18;50.55;;;6.00;99.90;;;;;;4931149;29;20051;-51
2022/01/13 10:45:57;;;;;;;111.75;42.70;;;6.10;99.90;;;;;;4929773;29;20059;-47
2022/01/13 10:48:25;;;;;;;117.45;41.25;;;6.00;99.90;;;;;;4866276;29;20144;-51
2022/01/13 10:50:59;;;;;;;107.13;38.38;;;6.20;99.90;;;;;;4867351;29;20060;-50
2022/01/13 10:53:32;;;;;;;111.82;45.70;;;6.20;99.90;;;;;;4865563;29;20218;-49
2022/01/13 10:56:20;;;;;;;104.30;40.47;;;6.20;99.90;;;;;;4866501;29;20045;-50
2022/01/13 10:58:51;;;;;;;103.00;38.60;;;6.30;99.90;;;;;;4912912;29;21269;-49
2022/01/13 11:01:17;;;;;;;100.13;37.58;;;6.20;99.90;;;;;;4922324;29;20044;-53
2022/01/13 11:03:44;;;;;;;93.25;37.17;;;6.30;99.90;;;;;;4923170;29;20594;-47
2022/01/13 11:06:11;;;;;;;100.63;38.47;;;6.20;99.90;;;;;;4921944;29;20059;-50
2022/01/13 11:08:44;;;;;;;101.53;38.67;;;6.30;99.90;;;;;;4922258;29;20547;-48
2022/01/13 11:11:21;;;;;;;92.00;37.38;;;6.30;99.90;;;;;;4921261;29;20112;-51
2022/01/13 11:13:52;;;;;;;90.38;37.30;;;6.20;99.90;;;;;;4904461;29;20047;-53
2022/01/13 11:16:19;;;;;;;96.27;35.77;;;6.40;99.90;;;;;;4924958;28;20040;-50
2022/01/13 11:18:45;;;;;;;95.07;35.85;;;6.20;99.90;;;;;;4979616;28;20225;-51
2022/01/13 11:21:10;;;;;;;97.30;35.83;;;6.30;99.90;;;;;;4979004;28;20576;-52
2022/01/13 11:23:38;;;;;;;84.40;34.95;;;6.40;99.90;;;;;;4978865;28;20078;-47
2022/01/13 11:26:06;;;;;;;91.30;35.92;;;6.40;99.90;;;;;;5060549;28;20594;-48
2022/01/13 11:28:35;;;;;;;76.85;35.80;;;6.40;99.90;;;;;;5062083;28;20036;-51
2022/01/13 11:31:01;;;;;;;74.80;32.45;;;6.40;99.90;;;;;;5061519;28;20055;-51
2022/01/13 11:33:27;;;;;;;90.90;37.00;;;6.40;99.90;;;;;;5060827;28;20388;-49
2022/01/13 11:35:55;;;;;;;84.68;35.40;;;6.40;99.90;;;;;;5059499;28;20135;-52
2022/01/13 11:38:22;;;;;;;93.07;37.55;;;6.40;99.90;;;;;;5060068;28;20033;-50
2022/01/13 11:40:51;;;;;;;99.22;38.30;;;6.30;99.90;;;;;;5061430;28;20114;-52
2022/01/13 11:43:27;;;;;;;89.40;46.47;;;6.40;99.90;;;;;;5060014;28;20040;-50
2022/01/13 11:45:52;;;;;;;80.70;36.60;;;6.40;99.90;;;;;;5060842;28;20040;-51
2022/01/13 11:48:23;;;;;;;79.18;37.38;;;6.40;99.90;;;;;;5060664;28;20846;-52
2022/01/13 11:50:54;;;;;;;78.55;41.15;;;6.50;99.90;;;;;;5060889;28;20119;-51
2022/01/13 11:53:27;;;;;;;67.65;33.13;;;6.50;99.90;;;;;;5061372;28;20039;-52
2022/01/13 11:56:01;;;;;;;68.05;32.13;;;7.70;99.90;;;;;;5057903;28;20049;-47
2022/01/13 11:58:58;;;;;;;58.90;30.83;;;6.50;99.90;;;;;;5060997;28;20055;-54
2022/01/13 12:01:29;;;;;;;67.20;32.88;;;6.50;99.90;;;;;;4978974;28;20047;-53
2022/01/13 12:03:57;;;;;;;55.17;29.88;;;6.40;99.90;;;;;;4976379;28;20038;-52
2022/01/13 12:06:58;;;;;;;61.92;28.13;;;6.60;99.90;;;;;;4978092;28;20047;-51
2022/01/13 12:09:24;;;;;;;58.60;28.52;;;6.60;99.90;;;;;;4903056;29;20587;-53
2022/01/13 12:12:27;;;;;;;55.30;28.98;;;6.60;99.90;;;;;;4922063;29;20188;-51
2022/01/13 12:15:33;;;;;;;51.42;27.42;;;7.50;99.90;;;;;;4864108;29;20052;-51
2022/01/13 12:18:03;;;;;;;53.05;28.58;;;6.50;99.90;;;;;;4865552;29;20160;-51
2022/01/13 12:20:58;;;;;;;58.05;29.05;;;8.30;99.90;;;;;;4866027;29;20073;-52
2022/01/13 12:23:37;;;;;;;55.17;28.38;;;6.60;99.90;;;;;;4865562;29;20057;-52
2022/01/13 12:26:23;;;;;;;52.22;28.77;;;6.80;99.90;;;;;;4867843;29;20049;-51
2022/01/13 12:29:11;;;;;;;50.30;27.98;;;6.70;99.90;;;;;;4870156;29;20864;-48
2022/01/13 12:31:58;;;;;;;51.22;27.23;;;6.70;99.90;;;;;;4868178;29;20610;-51
2022/01/13 12:34:33;;;;;;;48.45;28.98;;;6.90;99.90;;;;;;4867917;29;20445;-52
2022/01/13 12:37:12;;;;;;;51.47;29.75;;;6.90;99.90;;;;;;4880565;29;20047;-51
2022/01/13 12:39:41;;;;;;;67.70;29.92;;;6.90;99.90;;;;;;4942312;29;20043;-52
2022/01/13 12:42:17;;;;;;;53.25;27.75;;;7.00;99.90;;;;;;4944628;29;20055;-52
2022/01/13 12:47:27;;;;;;;48.42;26.00;;;8.20;99.90;;;;;;5002516;28;20041;-52
2022/01/13 12:49:54;;;;;;;51.05;25.42;;;7.20;99.90;;;;;;5002489;28;20093;-50
2022/01/13 12:52:25;;;;;;;53.22;28.48;;;7.20;99.90;;;;;;5047466;28;20097;-49
2022/01/13 12:54:52;;;;;;;46.17;25.75;;;8.40;99.90;;;;;;5064393;28;20175;-51
2022/01/13 12:57:18;;;;;;;46.25;25.02;;;9.30;99.90;;;;;;5063055;28;20113;-52
2022/01/13 12:59:45;;;;;;;50.03;24.25;;;7.30;99.90;;;;;;5064020;28;20115;-51
2022/01/13 13:02:11;;;;;;;48.22;25.20;;;7.40;99.90;;;;;;5063435;28;20040;-52
2022/01/13 13:04:37;;;;;;;53.53;26.45;;;7.40;99.90;;;;;;5063984;28;20029;-47
2022/01/13 13:07:05;;;;;;;41.03;23.80;;;7.40;99.90;;;;;;5063702;28;20043;-48
2022/01/13 13:09:33;;;;;;;42.28;22.80;;;7.20;99.90;;;;;;5063400;28;20037;-52
2022/01/13 13:12:02;;;;;;;37.72;22.73;;;7.50;99.90;;;;;;5063262;28;20048;-49
2022/01/13 13:14:35;;;;;;;43.42;22.75;;;7.40;99.90;;;;;;5063117;28;20045;-51
2022/01/13 13:17:01;;;;;;;41.72;23.58;;;7.40;99.90;;;;;;5064534;28;20055;-52
2022/01/13 13:19:26;;;;;;;35.75;21.73;;;7.30;99.90;;;;;;5063764;28;20033;-51
2022/01/13 13:21:52;;;;;;;37.85;20.13;;;7.40;99.90;;;;;;5062382;28;20199;-50
2022/01/13 13:24:22;;;;;;;37.30;20.63;;;7.30;99.90;;;;;;5062944;28;20043;-51